Terminal Aerodrome Forecast
Issued by NWS Salt Lake City, UT

Home | Current Version | Previous Version | Text Only | Print | Product List | Glossary On
Versions: 1 2 3 4 5 6 7 8 9 10 11 12 13 14 15 16 17 18 19 20 21 22 23 24 25 26 27 28 29 30 31
000
FTUS45 KSLC 260301 AAB
TAFSLC
TAF AMD
KSLC 260301Z 2603/2706 35009KT P6SM FEW080 SCT120
     FM260500 16007KT P6SM SCT080 BKN120
     FM261500 32008KT P6SM -SHRA SCT050 BKN090
     FM262000 35010KT P6SM SCT060 BKN100
     FM270500 16007KT P6SM SCT080=

USA.gov is the U.S. government's official web portal to all federal, state and local government web resources and services.